sensor_id;sensor_type;location;lat;lon;timestamp;P1;durP1;ratioP1;P2;durP2;ratioP2
5630;SDS011;2837;50.990;7.124;2023-09-19T05:02:32;150.33;;;9.37;;
5630;SDS011;2837;50.990;7.124;2023-09-19T05:04:59;155.87;;;8.90;;
5630;SDS011;2837;50.990;7.124;2023-09-19T05:07:25;152.60;;;10.23;;
5630;SDS011;2837;50.990;7.124;2023-09-19T05:09:51;167.82;;;12.65;;
5630;SDS011;2837;50.990;7.124;2023-09-19T05:12:16;148.30;;;8.37;;
5630;SDS011;2837;50.990;7.124;2023-09-19T05:14:44;151.77;;;9.33;;
5630;SDS011;2837;50.990;7.124;2023-09-19T05:17:10;155.10;;;9.03;;
5630;SDS011;2837;50.990;7.124;2023-09-19T05:19:36;152.77;;;10.13;;
5630;SDS011;2837;50.990;7.124;2023-09-19T05:22:03;150.50;;;8.63;;
5630;SDS011;2837;50.990;7.124;2023-09-19T05:24:29;153.17;;;9.33;;
5630;SDS011;2837;50.990;7.124;2023-09-19T05:26:56;151.30;;;8.60;;
5630;SDS011;2837;50.990;7.124;2023-09-19T05:29:22;152.80;;;9.67;;
5630;SDS011;2837;50.990;7.124;2023-09-19T05:31:48;151.07;;;9.77;;
5630;SDS011;2837;50.990;7.124;2023-09-19T05:34:14;154.00;;;10.43;;
5630;SDS011;2837;50.990;7.124;2023-09-19T05:36:40;150.70;;;9.77;;
5630;SDS011;2837;50.990;7.124;2023-09-19T05:39:06;159.70;;;9.33;;
5630;SDS011;2837;50.990;7.124;2023-09-19T05:41:34;154.30;;;10.37;;
5630;SDS011;2837;50.990;7.124;2023-09-19T05:44:02;152.17;;;9.73;;
5630;SDS011;2837;50.990;7.124;2023-09-19T05:46:28;153.23;;;9.47;;
5630;SDS011;2837;50.990;7.124;2023-09-19T05:48:55;151.73;;;9.70;;
5630;SDS011;2837;50.990;7.124;2023-09-19T05:51:21;152.83;;;10.37;;
5630;SDS011;2837;50.990;7.124;2023-09-19T05:53:48;150.87;;;8.93;;
5630;SDS011;2837;50.990;7.124;2023-09-19T05:56:15;153.23;;;9.43;;
5630;SDS011;2837;50.990;7.124;2023-09-19T05:58:40;158.23;;;10.73;;
5630;SDS011;2837;50.990;7.124;2023-09-19T06:01:09;151.57;;;9.70;;
5630;SDS011;2837;50.990;7.124;2023-09-19T06:03:35;151.77;;;9.80;;
5630;SDS011;2837;50.990;7.124;2023-09-19T06:06:01;151.03;;;10.10;;
5630;SDS011;2837;50.990;7.124;2023-09-19T06:08:28;158.20;;;9.37;;
5630;SDS011;2837;50.990;7.124;2023-09-19T06:10:53;156.77;;;10.57;;
5630;SDS011;2837;50.990;7.124;2023-09-19T06:13:19;154.60;;;9.80;;
5630;SDS011;2837;50.990;7.124;2023-09-19T06:15:45;151.30;;;9.73;;
5630;SDS011;2837;50.990;7.124;2023-09-19T06:18:12;153.70;;;10.10;;
5630;SDS011;2837;50.990;7.124;2023-09-19T06:20:47;152.83;;;10.00;;
5630;SDS011;2837;50.990;7.124;2023-09-19T06:23:16;150.77;;;9.00;;
5630;SDS011;2837;50.990;7.124;2023-09-19T06:25:42;154.93;;;9.63;;
5630;SDS011;2837;50.990;7.124;2023-09-19T06:28:08;150.70;;;9.70;;
5630;SDS011;2837;50.990;7.124;2023-09-19T06:30:37;156.37;;;9.70;;
5630;SDS011;2837;50.990;7.124;2023-09-19T06:33:05;153.80;;;9.87;;
5630;SDS011;2837;50.990;7.124;2023-09-19T06:35:32;153.67;;;10.30;;
5630;SDS011;2837;50.990;7.124;2023-09-19T06:38:01;154.60;;;10.70;;
5630;SDS011;2837;50.990;7.124;2023-09-19T06:40:28;153.23;;;9.87;;
5630;SDS011;2837;50.990;7.124;2023-09-19T06:42:56;152.87;;;8.63;;
5630;SDS011;2837;50.990;7.124;2023-09-19T06:45:22;154.60;;;9.67;;
5630;SDS011;2837;50.990;7.124;2023-09-19T06:47:51;152.80;;;9.03;;
5630;SDS011;2837;50.990;7.124;2023-09-19T06:50:22;156.97;;;9.10;;
5630;SDS011;2837;50.990;7.124;2023-09-19T06:52:49;153.70;;;10.27;;
5630;SDS011;2837;50.990;7.124;2023-09-19T06:55:17;152.70;;;10.07;;
5630;SDS011;2837;50.990;7.124;2023-09-19T06:57:44;151.17;;;9.43;;
5630;SDS011;2837;50.990;7.124;2023-09-19T07:00:11;152.10;;;10.00;;
5630;SDS011;2837;50.990;7.124;2023-09-19T07:02:43;150.70;;;9.90;;
5630;SDS011;2837;50.990;7.124;2023-09-19T07:05:09;151.87;;;9.87;;
5630;SDS011;2837;50.990;7.124;2023-09-19T07:07:35;155.97;;;10.40;;
5630;SDS011;2837;50.990;7.124;2023-09-19T07:10:01;151.87;;;9.67;;
5630;SDS011;2837;50.990;7.124;2023-09-19T07:12:30;150.07;;;8.97;;
5630;SDS011;2837;50.990;7.124;2023-09-19T07:14:57;151.17;;;9.70;;
5630;SDS011;2837;50.990;7.124;2023-09-19T07:17:24;154.13;;;9.90;;
5630;SDS011;2837;50.990;7.124;2023-09-19T07:19:50;161.47;;;10.27;;
5630;SDS011;2837;50.990;7.124;2023-09-19T07:22:16;150.70;;;9.13;;
5630;SDS011;2837;50.990;7.124;2023-09-19T07:24:42;152.97;;;10.07;;
5630;SDS011;2837;50.990;7.124;2023-09-19T07:27:08;152.57;;;9.77;;
5630;SDS011;2837;50.990;7.124;2023-09-19T07:29:34;152.40;;;9.87;;
5630;SDS011;2837;50.990;7.124;2023-09-19T07:32:00;150.47;;;8.50;;
5630;SDS011;2837;50.990;7.124;2023-09-19T07:34:26;153.17;;;10.37;;
5630;SDS011;2837;50.990;7.124;2023-09-19T07:36:52;151.87;;;8.97;;
5630;SDS011;2837;50.990;7.124;2023-09-19T07:39:18;148.97;;;9.27;;
5630;SDS011;2837;50.990;7.124;2023-09-19T07:41:44;149.47;;;8.77;;
5630;SDS011;2837;50.990;7.124;2023-09-19T07:44:09;151.90;;;10.03;;
5630;SDS011;2837;50.990;7.124;2023-09-19T07:46:35;158.27;;;9.70;;
5630;SDS011;2837;50.990;7.124;2023-09-19T07:49:01;149.97;;;9.03;;
5630;SDS011;2837;50.990;7.124;2023-09-19T07:51:27;149.67;;;8.53;;
5630;SDS011;2837;50.990;7.124;2023-09-19T07:53:54;148.43;;;8.33;;
5630;SDS011;2837;50.990;7.124;2023-09-19T07:56:20;153.27;;;9.53;;
5630;SDS011;2837;50.990;7.124;2023-09-19T07:58:48;156.40;;;9.47;;
5630;SDS011;2837;50.990;7.124;2023-09-19T08:01:13;152.13;;;9.23;;
5630;SDS011;2837;50.990;7.124;2023-09-19T08:03:41;156.30;;;9.90;;
5630;SDS011;2837;50.990;7.124;2023-09-19T08:06:08;152.57;;;9.00;;
5630;SDS011;2837;50.990;7.124;2023-09-19T08:08:34;151.87;;;9.67;;
5630;SDS011;2837;50.990;7.124;2023-09-19T08:11:04;149.33;;;9.03;;
5630;SDS011;2837;50.990;7.124;2023-09-19T08:13:46;148.20;;;8.83;;
5630;SDS011;2837;50.990;7.124;2023-09-19T08:16:13;151.40;;;9.40;;
5630;SDS011;2837;50.990;7.124;2023-09-19T08:18:40;152.03;;;10.07;;
5630;SDS011;2837;50.990;7.124;2023-09-19T08:21:06;152.63;;;9.53;;
5630;SDS011;2837;50.990;7.124;2023-09-19T08:23:35;148.77;;;8.30;;
5630;SDS011;2837;50.990;7.124;2023-09-19T08:26:01;148.87;;;9.07;;
5630;SDS011;2837;50.990;7.124;2023-09-19T08:28:32;151.67;;;9.73;;
5630;SDS011;2837;50.990;7.124;2023-09-19T08:31:04;148.73;;;8.30;;
5630;SDS011;2837;50.990;7.124;2023-09-19T08:33:32;154.07;;;9.17;;
5630;SDS011;2837;50.990;7.124;2023-09-19T08:35:59;149.57;;;8.57;;
5630;SDS011;2837;50.990;7.124;2023-09-19T08:38:25;152.67;;;9.70;;
5630;SDS011;2837;50.990;7.124;2023-09-19T08:40:56;152.30;;;9.13;;
5630;SDS011;2837;50.990;7.124;2023-09-19T08:43:23;153.30;;;8.73;;
5630;SDS011;2837;50.990;7.124;2023-09-19T08:45:49;151.87;;;9.60;;
5630;SDS011;2837;50.990;7.124;2023-09-19T08:56:32;148.20;;;8.77;;
5630;SDS011;2837;50.990;7.124;2023-09-19T08:59:05;149.77;;;9.80;;
5630;SDS011;2837;50.990;7.124;2023-09-19T09:01:34;151.87;;;8.77;;
5630;SDS011;2837;50.990;7.124;2023-09-19T09:04:01;153.97;;;9.80;;
5630;SDS011;2837;50.990;7.124;2023-09-19T09:06:27;151.33;;;9.03;;
5630;SDS011;2837;50.990;7.124;2023-09-19T09:08:57;151.47;;;10.00;;
5630;SDS011;2837;50.990;7.124;2023-09-19T09:11:23;149.07;;;9.40;;
5630;SDS011;2837;50.990;7.124;2023-09-19T09:13:53;148.00;;;9.50;;
5630;SDS011;2837;50.990;7.124;2023-09-19T09:16:19;156.27;;;9.40;;
5630;SDS011;2837;50.990;7.124;2023-09-19T09:18:45;148.70;;;8.73;;
5630;SDS011;2837;50.990;7.124;2023-09-19T09:21:12;156.23;;;9.00;;
5630;SDS011;2837;50.990;7.124;2023-09-19T09:23:40;150.00;;;8.37;;
5630;SDS011;2837;50.990;7.124;2023-09-19T09:26:06;148.80;;;9.10;;
5630;SDS011;2837;50.990;7.124;2023-09-19T09:28:34;155.30;;;9.93;;
5630;SDS011;2837;50.990;7.124;2023-09-19T09:31:02;151.00;;;8.27;;
5630;SDS011;2837;50.990;7.124;2023-09-19T09:33:32;148.40;;;8.40;;
5630;SDS011;2837;50.990;7.124;2023-09-19T09:35:59;151.87;;;9.70;;
5630;SDS011;2837;50.990;7.124;2023-09-19T09:39:08;149.37;;;9.70;;
5630;SDS011;2837;50.990;7.124;2023-09-19T09:41:15;149.57;;;9.20;;
5630;SDS011;2837;50.990;7.124;2023-09-19T09:43:52;152.67;;;8.73;;
5630;SDS011;2837;50.990;7.124;2023-09-19T09:46:18;152.53;;;9.00;;
5630;SDS011;2837;50.990;7.124;2023-09-19T09:48:55;149.27;;;9.00;;
5630;SDS011;2837;50.990;7.124;2023-09-19T09:51:45;147.70;;;9.10;;
5630;SDS011;2837;50.990;7.124;2023-09-19T09:54:22;150.73;;;9.80;;
5630;SDS011;2837;50.990;7.124;2023-09-19T09:56:55;147.60;;;9.03;;
5630;SDS011;2837;50.990;7.124;2023-09-19T09:59:44;151.43;;;10.70;;
5630;SDS011;2837;50.990;7.124;2023-09-19T10:02:15;149.07;;;9.10;;
5630;SDS011;2837;50.990;7.124;2023-09-19T10:04:53;149.90;;;10.40;;
5630;SDS011;2837;50.990;7.124;2023-09-19T10:07:39;149.10;;;9.13;;
5630;SDS011;2837;50.990;7.124;2023-09-19T10:10:14;149.20;;;8.73;;
5630;SDS011;2837;50.990;7.124;2023-09-19T10:12:55;145.57;;;8.13;;
5630;SDS011;2837;50.990;7.124;2023-09-19T10:15:28;149.23;;;8.83;;
5630;SDS011;2837;50.990;7.124;2023-09-19T10:17:58;147.73;;;8.67;;
5630;SDS011;2837;50.990;7.124;2023-09-19T10:20:26;149.37;;;8.37;;
5630;SDS011;2837;50.990;7.124;2023-09-19T10:23:05;148.47;;;8.73;;
5630;SDS011;2837;50.990;7.124;2023-09-19T10:25:42;149.40;;;8.93;;
5630;SDS011;2837;50.990;7.124;2023-09-19T10:28:10;147.93;;;9.10;;
5630;SDS011;2837;50.990;7.124;2023-09-19T10:30:38;147.87;;;8.87;;
5630;SDS011;2837;50.990;7.124;2023-09-19T10:33:10;148.43;;;8.63;;
5630;SDS011;2837;50.990;7.124;2023-09-19T10:35:39;148.93;;;10.03;;
5630;SDS011;2837;50.990;7.124;2023-09-19T10:38:10;149.37;;;8.90;;
5630;SDS011;2837;50.990;7.124;2023-09-19T10:40:38;149.77;;;8.53;;
5630;SDS011;2837;50.990;7.124;2023-09-19T10:43:08;149.57;;;7.97;;
5630;SDS011;2837;50.990;7.124;2023-09-19T10:45:46;147.50;;;8.67;;
5630;SDS011;2837;50.990;7.124;2023-09-19T10:48:17;148.70;;;7.83;;
5630;SDS011;2837;50.990;7.124;2023-09-19T10:53:29;149.10;;;8.87;;
5630;SDS011;2837;50.990;7.124;2023-09-19T10:56:07;148.27;;;8.63;;
5630;SDS011;2837;50.990;7.124;2023-09-19T10:58:42;145.57;;;7.73;;
5630;SDS011;2837;50.990;7.124;2023-09-19T11:01:09;147.80;;;8.83;;
5630;SDS011;2837;50.990;7.124;2023-09-19T11:03:37;146.90;;;8.33;;
5630;SDS011;2837;50.990;7.124;2023-09-19T11:06:17;146.77;;;8.40;;
5630;SDS011;2837;50.990;7.124;2023-09-19T11:08:53;148.37;;;8.70;;
5630;SDS011;2837;50.990;7.124;2023-09-19T11:11:45;148.67;;;8.57;;
5630;SDS011;2837;50.990;7.124;2023-09-19T11:30:36;145.50;;;7.33;;
5630;SDS011;2837;50.990;7.124;2023-09-19T11:46:25;146.60;;;7.60;;
5630;SDS011;2837;50.990;7.124;2023-09-19T11:48:53;147.67;;;7.30;;
5630;SDS011;2837;50.990;7.124;2023-09-19T11:51:20;148.00;;;7.33;;
5630;SDS011;2837;50.990;7.124;2023-09-19T11:53:51;161.68;;;10.57;;
5630;SDS011;2837;50.990;7.124;2023-09-19T11:56:18;155.77;;;8.10;;
5630;SDS011;2837;50.990;7.124;2023-09-19T11:58:45;157.93;;;10.27;;
5630;SDS011;2837;50.990;7.124;2023-09-19T12:01:14;157.15;;;9.93;;
5630;SDS011;2837;50.990;7.124;2023-09-19T12:03:46;156.85;;;9.00;;
5630;SDS011;2837;50.990;7.124;2023-09-19T12:06:15;154.38;;;8.15;;
5630;SDS011;2837;50.990;7.124;2023-09-19T12:08:42;155.15;;;9.25;;
5630;SDS011;2837;50.990;7.124;2023-09-19T12:11:15;157.85;;;8.07;;
5630;SDS011;2837;50.990;7.124;2023-09-19T12:13:45;155.57;;;8.80;;
5630;SDS011;2837;50.990;7.124;2023-09-19T12:16:18;154.23;;;8.37;;
5630;SDS011;2837;50.990;7.124;2023-09-19T12:18:48;145.37;;;8.47;;
5630;SDS011;2837;50.990;7.124;2023-09-19T12:24:03;144.40;;;7.57;;
5630;SDS011;2837;50.990;7.124;2023-09-19T12:26:45;144.87;;;7.60;;
5630;SDS011;2837;50.990;7.124;2023-09-19T12:29:20;145.07;;;7.30;;
5630;SDS011;2837;50.990;7.124;2023-09-19T12:31:50;144.90;;;7.90;;
5630;SDS011;2837;50.990;7.124;2023-09-19T12:34:23;145.40;;;7.77;;
5630;SDS011;2837;50.990;7.124;2023-09-19T12:39:40;154.77;;;7.90;;
5630;SDS011;2837;50.990;7.124;2023-09-19T12:42:23;155.93;;;9.00;;
5630;SDS011;2837;50.990;7.124;2023-09-19T12:44:50;154.02;;;7.30;;
5630;SDS011;2837;50.990;7.124;2023-09-19T12:47:21;155.77;;;8.27;;
5630;SDS011;2837;50.990;7.124;2023-09-19T12:52:50;153.80;;;7.20;;
5630;SDS011;2837;50.990;7.124;2023-09-19T12:55:29;153.93;;;8.20;;
5630;SDS011;2837;50.990;7.124;2023-09-19T12:57:59;155.00;;;8.30;;
5630;SDS011;2837;50.990;7.124;2023-09-19T13:00:42;153.65;;;7.90;;
5630;SDS011;2837;50.990;7.124;2023-09-19T13:03:24;154.30;;;7.75;;
5630;SDS011;2837;50.990;7.124;2023-09-19T13:06:03;155.57;;;8.88;;
5630;SDS011;2837;50.990;7.124;2023-09-19T13:08:34;154.68;;;8.77;;
5630;SDS011;2837;50.990;7.124;2023-09-19T13:13:35;154.73;;;9.00;;
5630;SDS011;2837;50.990;7.124;2023-09-19T13:16:02;142.80;;;7.27;;
5630;SDS011;2837;50.990;7.124;2023-09-19T13:18:41;143.87;;;7.80;;
5630;SDS011;2837;50.990;7.124;2023-09-19T13:21:08;143.47;;;6.73;;
5630;SDS011;2837;50.990;7.124;2023-09-19T13:23:47;146.40;;;7.03;;
5630;SDS011;2837;50.990;7.124;2023-09-19T13:26:17;146.67;;;8.00;;
5630;SDS011;2837;50.990;7.124;2023-09-19T13:28:43;145.27;;;7.10;;
5630;SDS011;2837;50.990;7.124;2023-09-19T13:31:09;146.77;;;7.67;;
5630;SDS011;2837;50.990;7.124;2023-09-19T13:33:42;146.13;;;7.60;;
5630;SDS011;2837;50.990;7.124;2023-09-19T13:36:08;145.77;;;7.60;;
5630;SDS011;2837;50.990;7.124;2023-09-19T13:38:34;144.27;;;7.37;;
5630;SDS011;2837;50.990;7.124;2023-09-19T13:41:00;146.37;;;7.50;;
5630;SDS011;2837;50.990;7.124;2023-09-19T13:43:27;146.27;;;7.50;;
5630;SDS011;2837;50.990;7.124;2023-09-19T13:45:53;149.10;;;8.67;;
5630;SDS011;2837;50.990;7.124;2023-09-19T13:48:20;148.77;;;8.10;;
5630;SDS011;2837;50.990;7.124;2023-09-19T13:50:47;145.37;;;7.40;;
5630;SDS011;2837;50.990;7.124;2023-09-19T13:53:13;145.87;;;8.30;;
5630;SDS011;2837;50.990;7.124;2023-09-19T13:55:39;147.10;;;8.00;;
5630;SDS011;2837;50.990;7.124;2023-09-19T13:58:05;146.57;;;7.97;;
5630;SDS011;2837;50.990;7.124;2023-09-19T14:00:32;146.80;;;8.53;;
5630;SDS011;2837;50.990;7.124;2023-09-19T14:03:01;147.53;;;8.27;;
5630;SDS011;2837;50.990;7.124;2023-09-19T14:05:27;145.67;;;7.97;;
5630;SDS011;2837;50.990;7.124;2023-09-19T14:07:53;145.13;;;7.60;;
5630;SDS011;2837;50.990;7.124;2023-09-19T14:10:21;145.37;;;7.90;;
5630;SDS011;2837;50.990;7.124;2023-09-19T14:12:47;146.27;;;7.67;;
5630;SDS011;2837;50.990;7.124;2023-09-19T14:15:13;145.90;;;7.20;;
5630;SDS011;2837;50.990;7.124;2023-09-19T14:17:39;147.20;;;7.90;;
5630;SDS011;2837;50.990;7.124;2023-09-19T14:20:10;146.00;;;7.50;;
5630;SDS011;2837;50.990;7.124;2023-09-19T14:22:36;145.20;;;7.70;;
5630;SDS011;2837;50.990;7.124;2023-09-19T14:25:02;146.40;;;7.20;;
5630;SDS011;2837;50.990;7.124;2023-09-19T14:27:29;145.33;;;7.00;;
5630;SDS011;2837;50.990;7.124;2023-09-19T14:29:55;146.57;;;6.63;;
5630;SDS011;2837;50.990;7.124;2023-09-19T14:32:24;148.07;;;8.10;;
5630;SDS011;2837;50.990;7.124;2023-09-19T14:34:51;145.50;;;7.40;;
5630;SDS011;2837;50.990;7.124;2023-09-19T14:37:17;148.80;;;7.23;;
5630;SDS011;2837;50.990;7.124;2023-09-19T14:39:43;145.33;;;7.07;;
5630;SDS011;2837;50.990;7.124;2023-09-19T14:42:12;148.20;;;7.90;;
5630;SDS011;2837;50.990;7.124;2023-09-19T14:44:39;144.63;;;6.47;;
5630;SDS011;2837;50.990;7.124;2023-09-19T14:47:05;145.40;;;7.30;;
5630;SDS011;2837;50.990;7.124;2023-09-19T14:49:35;146.70;;;8.07;;
5630;SDS011;2837;50.990;7.124;2023-09-19T14:52:07;144.77;;;7.00;;
5630;SDS011;2837;50.990;7.124;2023-09-19T14:54:33;147.80;;;8.23;;
5630;SDS011;2837;50.990;7.124;2023-09-19T14:56:59;146.10;;;8.00;;
5630;SDS011;2837;50.990;7.124;2023-09-19T14:59:32;146.60;;;8.33;;
5630;SDS011;2837;50.990;7.124;2023-09-19T15:01:59;146.97;;;7.97;;
5630;SDS011;2837;50.990;7.124;2023-09-19T15:04:25;147.27;;;8.30;;
5630;SDS011;2837;50.990;7.124;2023-09-19T15:06:51;146.63;;;7.57;;
5630;SDS011;2837;50.990;7.124;2023-09-19T15:09:20;145.90;;;7.90;;
5630;SDS011;2837;50.990;7.124;2023-09-19T15:11:46;157.67;;;7.77;;
5630;SDS011;2837;50.990;7.124;2023-09-19T15:14:12;146.10;;;8.13;;
5630;SDS011;2837;50.990;7.124;2023-09-19T15:16:38;145.90;;;7.20;;
5630;SDS011;2837;50.990;7.124;2023-09-19T15:19:06;145.47;;;8.20;;
5630;SDS011;2837;50.990;7.124;2023-09-19T15:21:32;148.10;;;7.67;;
5630;SDS011;2837;50.990;7.124;2023-09-19T15:23:58;147.33;;;8.00;;
5630;SDS011;2837;50.990;7.124;2023-09-19T15:26:24;144.20;;;6.80;;
5630;SDS011;2837;50.990;7.124;2023-09-19T15:28:50;144.17;;;7.30;;
5630;SDS011;2837;50.990;7.124;2023-09-19T15:31:16;146.23;;;7.60;;
5630;SDS011;2837;50.990;7.124;2023-09-19T15:33:42;144.70;;;6.53;;
5630;SDS011;2837;50.990;7.124;2023-09-19T15:36:09;145.27;;;7.70;;
5630;SDS011;2837;50.990;7.124;2023-09-19T15:41:24;147.27;;;8.33;;
5630;SDS011;2837;50.990;7.124;2023-09-19T15:43:50;157.00;;;8.73;;
5630;SDS011;2837;50.990;7.124;2023-09-19T15:46:16;154.73;;;6.90;;
5630;SDS011;2837;50.990;7.124;2023-09-19T15:48:41;153.30;;;7.20;;
5630;SDS011;2837;50.990;7.124;2023-09-19T15:51:08;154.90;;;9.67;;
5630;SDS011;2837;50.990;7.124;2023-09-19T15:53:46;154.13;;;7.53;;
5630;SDS011;2837;50.990;7.124;2023-09-19T15:56:13;153.10;;;7.30;;
5630;SDS011;2837;50.990;7.124;2023-09-19T15:58:40;155.68;;;9.05;;
5630;SDS011;2837;50.990;7.124;2023-09-19T16:01:06;152.90;;;7.00;;
5630;SDS011;2837;50.990;7.124;2023-09-19T16:03:34;155.15;;;8.80;;
5630;SDS011;2837;50.990;7.124;2023-09-19T16:06:00;153.43;;;7.50;;
5630;SDS011;2837;50.990;7.124;2023-09-19T16:08:26;152.75;;;7.95;;
5630;SDS011;2837;50.990;7.124;2023-09-19T16:10:52;152.98;;;7.47;;
5630;SDS011;2837;50.990;7.124;2023-09-19T16:13:18;152.90;;;7.20;;
5630;SDS011;2837;50.990;7.124;2023-09-19T16:15:44;152.00;;;7.00;;
5630;SDS011;2837;50.990;7.124;2023-09-19T16:18:10;154.77;;;9.27;;
5630;SDS011;2837;50.990;7.124;2023-09-19T16:20:36;154.23;;;8.45;;
5630;SDS011;2837;50.990;7.124;2023-09-19T16:23:03;153.30;;;7.80;;
5630;SDS011;2837;50.990;7.124;2023-09-19T16:25:29;152.30;;;6.90;;
5630;SDS011;2837;50.990;7.124;2023-09-19T16:27:57;153.60;;;8.25;;
5630;SDS011;2837;50.990;7.124;2023-09-19T16:30:23;144.27;;;7.90;;
5630;SDS011;2837;50.990;7.124;2023-09-19T16:32:49;143.20;;;7.17;;
5630;SDS011;2837;50.990;7.124;2023-09-19T16:35:15;154.55;;;8.88;;
5630;SDS011;2837;50.990;7.124;2023-09-19T16:37:41;142.03;;;6.77;;
5630;SDS011;2837;50.990;7.124;2023-09-19T16:40:07;144.07;;;6.93;;
5630;SDS011;2837;50.990;7.124;2023-09-19T16:42:34;144.70;;;7.07;;
5630;SDS011;2837;50.990;7.124;2023-09-19T16:45:00;144.47;;;7.20;;
5630;SDS011;2837;50.990;7.124;2023-09-19T16:47:26;146.40;;;7.77;;
5630;SDS011;2837;50.990;7.124;2023-09-19T16:49:52;146.40;;;7.50;;
5630;SDS011;2837;50.990;7.124;2023-09-19T16:52:18;145.57;;;7.60;;
5630;SDS011;2837;50.990;7.124;2023-09-19T16:54:44;145.57;;;7.40;;
5630;SDS011;2837;50.990;7.124;2023-09-19T16:57:10;145.37;;;8.27;;
5630;SDS011;2837;50.990;7.124;2023-09-19T16:59:36;144.57;;;7.50;;
5630;SDS011;2837;50.990;7.124;2023-09-19T17:02:02;146.07;;;8.00;;
5630;SDS011;2837;50.990;7.124;2023-09-19T17:04:28;147.67;;;7.70;;
5630;SDS011;2837;50.990;7.124;2023-09-19T17:06:56;146.37;;;7.70;;
5630;SDS011;2837;50.990;7.124;2023-09-19T17:09:22;149.37;;;8.50;;
5630;SDS011;2837;50.990;7.124;2023-09-19T17:11:48;146.07;;;7.97;;
5630;SDS011;2837;50.990;7.124;2023-09-19T17:14:14;147.13;;;8.10;;
5630;SDS011;2837;50.990;7.124;2023-09-19T17:16:40;146.83;;;8.23;;
5630;SDS011;2837;50.990;7.124;2023-09-19T17:19:07;149.20;;;8.30;;
5630;SDS011;2837;50.990;7.124;2023-09-19T17:21:37;145.47;;;7.27;;
5630;SDS011;2837;50.990;7.124;2023-09-19T17:24:03;147.27;;;7.77;;
5630;SDS011;2837;50.990;7.124;2023-09-19T17:26:32;146.83;;;8.53;;
5630;SDS011;2837;50.990;7.124;2023-09-19T17:28:58;147.20;;;7.70;;
5630;SDS011;2837;50.990;7.124;2023-09-19T17:31:25;146.37;;;7.90;;
5630;SDS011;2837;50.990;7.124;2023-09-19T17:33:51;149.90;;;9.30;;
5630;SDS011;2837;50.990;7.124;2023-09-19T17:36:19;147.30;;;8.73;;
5630;SDS011;2837;50.990;7.124;2023-09-19T17:38:46;147.87;;;8.40;;
5630;SDS011;2837;50.990;7.124;2023-09-19T17:41:13;146.67;;;8.87;;
5630;SDS011;2837;50.990;7.124;2023-09-19T17:43:42;146.93;;;8.47;;
5630;SDS011;2837;50.990;7.124;2023-09-19T17:48:36;146.50;;;8.10;;
5630;SDS011;2837;50.990;7.124;2023-09-19T17:51:03;148.93;;;8.90;;
5630;SDS011;2837;50.990;7.124;2023-09-19T17:53:30;150.40;;;9.00;;
5630;SDS011;2837;50.990;7.124;2023-09-19T17:55:56;146.60;;;8.60;;
5630;SDS011;2837;50.990;7.124;2023-09-19T17:58:22;147.03;;;8.30;;
5630;SDS011;2837;50.990;7.124;2023-09-19T18:00:48;147.77;;;7.90;;
5630;SDS011;2837;50.990;7.124;2023-09-19T18:03:15;148.60;;;9.03;;
5630;SDS011;2837;50.990;7.124;2023-09-19T18:05:44;146.07;;;7.70;;
5630;SDS011;2837;50.990;7.124;2023-09-19T18:08:15;147.43;;;8.07;;
5630;SDS011;2837;50.990;7.124;2023-09-19T18:10:41;148.67;;;9.33;;
5630;SDS011;2837;50.990;7.124;2023-09-19T18:13:07;150.40;;;8.03;;
5630;SDS011;2837;50.990;7.124;2023-09-19T18:15:35;148.13;;;8.70;;
5630;SDS011;2837;50.990;7.124;2023-09-19T18:18:03;147.57;;;8.03;;
5630;SDS011;2837;50.990;7.124;2023-09-19T18:20:33;148.43;;;8.47;;
5630;SDS011;2837;50.990;7.124;2023-09-19T18:22:59;149.53;;;8.27;;
5630;SDS011;2837;50.990;7.124;2023-09-19T18:25:25;146.53;;;8.33;;
5630;SDS011;2837;50.990;7.124;2023-09-19T18:27:51;149.87;;;8.30;;
5630;SDS011;2837;50.990;7.124;2023-09-19T18:30:18;147.87;;;7.90;;
5630;SDS011;2837;50.990;7.124;2023-09-19T18:32:45;146.50;;;8.60;;
5630;SDS011;2837;50.990;7.124;2023-09-19T18:35:11;146.47;;;7.63;;
5630;SDS011;2837;50.990;7.124;2023-09-19T18:37:39;150.20;;;8.40;;
5630;SDS011;2837;50.990;7.124;2023-09-19T18:40:07;148.47;;;8.83;;
5630;SDS011;2837;50.990;7.124;2023-09-19T18:42:35;147.57;;;8.57;;
5630;SDS011;2837;50.990;7.124;2023-09-19T18:45:02;147.00;;;8.40;;
5630;SDS011;2837;50.990;7.124;2023-09-19T18:47:28;146.63;;;8.33;;
5630;SDS011;2837;50.990;7.124;2023-09-19T18:49:54;149.97;;;8.97;;
5630;SDS011;2837;50.990;7.124;2023-09-19T18:52:20;159.43;;;10.27;;
5630;SDS011;2837;50.990;7.124;2023-09-19T18:54:47;158.10;;;10.00;;
5630;SDS011;2837;50.990;7.124;2023-09-19T18:57:13;148.90;;;8.93;;
5630;SDS011;2837;50.990;7.124;2023-09-19T18:59:39;146.30;;;8.20;;
5630;SDS011;2837;50.990;7.124;2023-09-19T19:02:05;145.57;;;8.07;;
5630;SDS011;2837;50.990;7.124;2023-09-19T19:04:31;147.30;;;7.40;;
5630;SDS011;2837;50.990;7.124;2023-09-19T19:06:56;147.63;;;8.17;;
5630;SDS011;2837;50.990;7.124;2023-09-19T19:09:24;146.47;;;7.60;;
5630;SDS011;2837;50.990;7.124;2023-09-19T19:11:50;146.70;;;8.13;;
5630;SDS011;2837;50.990;7.124;2023-09-19T19:14:16;147.87;;;7.80;;
5630;SDS011;2837;50.990;7.124;2023-09-19T19:16:43;146.67;;;7.70;;
5630;SDS011;2837;50.990;7.124;2023-09-19T19:19:12;146.40;;;8.23;;
5630;SDS011;2837;50.990;7.124;2023-09-19T19:21:38;146.87;;;8.30;;
5630;SDS011;2837;50.990;7.124;2023-09-19T19:24:04;147.20;;;8.13;;
5630;SDS011;2837;50.990;7.124;2023-09-19T19:26:30;147.67;;;8.97;;
5630;SDS011;2837;50.990;7.124;2023-09-19T19:28:56;146.60;;;8.77;;
5630;SDS011;2837;50.990;7.124;2023-09-19T19:31:22;146.90;;;9.07;;
5630;SDS011;2837;50.990;7.124;2023-09-19T19:33:52;146.30;;;8.30;;
5630;SDS011;2837;50.990;7.124;2023-09-19T19:36:18;147.03;;;8.60;;
5630;SDS011;2837;50.990;7.124;2023-09-19T19:38:47;146.80;;;8.47;;
5630;SDS011;2837;50.990;7.124;2023-09-19T19:41:13;146.17;;;8.20;;
5630;SDS011;2837;50.990;7.124;2023-09-19T19:43:39;148.30;;;8.50;;
5630;SDS011;2837;50.990;7.124;2023-09-19T19:46:07;148.70;;;9.07;;
5630;SDS011;2837;50.990;7.124;2023-09-19T19:48:32;145.87;;;8.70;;
5630;SDS011;2837;50.990;7.124;2023-09-19T19:51:06;149.67;;;8.90;;
5630;SDS011;2837;50.990;7.124;2023-09-19T19:53:32;149.40;;;9.13;;
5630;SDS011;2837;50.990;7.124;2023-09-19T19:55:59;145.63;;;8.33;;
5630;SDS011;2837;50.990;7.124;2023-09-19T19:58:25;147.37;;;8.80;;
5630;SDS011;2837;50.990;7.124;2023-09-19T20:00:54;146.20;;;7.73;;
5630;SDS011;2837;50.990;7.124;2023-09-19T20:03:20;146.27;;;8.57;;
5630;SDS011;2837;50.990;7.124;2023-09-19T20:05:46;147.57;;;8.90;;
5630;SDS011;2837;50.990;7.124;2023-09-19T20:08:16;148.17;;;9.83;;
5630;SDS011;2837;50.990;7.124;2023-09-19T20:10:44;146.67;;;8.27;;
5630;SDS011;2837;50.990;7.124;2023-09-19T20:13:11;145.57;;;8.40;;
5630;SDS011;2837;50.990;7.124;2023-09-19T20:15:38;153.47;;;9.10;;
5630;SDS011;2837;50.990;7.124;2023-09-19T20:18:05;146.70;;;8.80;;
5630;SDS011;2837;50.990;7.124;2023-09-19T20:20:36;145.10;;;8.20;;
5630;SDS011;2837;50.990;7.124;2023-09-19T20:23:02;147.97;;;8.47;;
5630;SDS011;2837;50.990;7.124;2023-09-19T20:25:33;147.47;;;8.60;;
5630;SDS011;2837;50.990;7.124;2023-09-19T20:27:59;146.60;;;8.57;;
5630;SDS011;2837;50.990;7.124;2023-09-19T20:30:25;146.97;;;9.27;;
5630;SDS011;2837;50.990;7.124;2023-09-19T20:32:51;146.27;;;8.20;;
5630;SDS011;2837;50.990;7.124;2023-09-19T20:35:20;148.80;;;9.23;;
5630;SDS011;2837;50.990;7.124;2023-09-19T20:37:47;148.63;;;8.50;;
5630;SDS011;2837;50.990;7.124;2023-09-19T20:40:15;147.63;;;8.97;;
5630;SDS011;2837;50.990;7.124;2023-09-19T20:42:45;146.80;;;8.80;;
5630;SDS011;2837;50.990;7.124;2023-09-19T20:45:13;148.93;;;9.77;;
5630;SDS011;2837;50.990;7.124;2023-09-19T20:47:40;147.90;;;9.43;;
5630;SDS011;2837;50.990;7.124;2023-09-19T20:50:06;147.80;;;8.83;;